sensor_id;sensor_type;location;lat;lon;timestamp;temperature;humidity
75931;DHT22;64609;47.052;15.462;2022-11-20T00:02:23;8.40;71.90
75931;DHT22;64609;47.052;15.462;2022-11-20T00:04:49;8.40;71.90
75931;DHT22;64609;47.052;15.462;2022-11-20T00:07:14;8.40;72.40
75931;DHT22;64609;47.052;15.462;2022-11-20T00:09:40;8.40;72.50
75931;DHT22;64609;47.052;15.462;2022-11-20T00:12:06;8.50;72.70
75931;DHT22;64609;47.052;15.462;2022-11-20T00:14:31;8.50;73.00
75931;DHT22;64609;47.052;15.462;2022-11-20T00:16:57;8.50;73.00
75931;DHT22;64609;47.052;15.462;2022-11-20T00:19:23;8.60;73.50
75931;DHT22;64609;47.052;15.462;2022-11-20T00:21:48;8.60;73.30
75931;DHT22;64609;47.052;15.462;2022-11-20T00:24:16;8.60;72.90
75931;DHT22;64609;47.052;15.462;2022-11-20T00:26:42;8.60;72.70
75931;DHT22;64609;47.052;15.462;2022-11-20T00:29:09;8.60;72.90
75931;DHT22;64609;47.052;15.462;2022-11-20T00:31:35;8.60;72.60
75931;DHT22;64609;47.052;15.462;2022-11-20T00:34:01;8.60;72.60
75931;DHT22;64609;47.052;15.462;2022-11-20T00:36:28;8.60;72.60
75931;DHT22;64609;47.052;15.462;2022-11-20T00:38:55;8.60;72.90
75931;DHT22;64609;47.052;15.462;2022-11-20T00:41:22;8.50;72.80
75931;DHT22;64609;47.052;15.462;2022-11-20T00:43:48;8.50;72.70
75931;DHT22;64609;47.052;15.462;2022-11-20T00:46:19;8.50;72.40
75931;DHT22;64609;47.052;15.462;2022-11-20T00:48:45;8.50;72.10
75931;DHT22;64609;47.052;15.462;2022-11-20T00:51:12;8.50;72.30
75931;DHT22;64609;47.052;15.462;2022-11-20T00:53:38;8.50;72.50
75931;DHT22;64609;47.052;15.462;2022-11-20T00:56:11;8.50;72.50
75931;DHT22;64609;47.052;15.462;2022-11-20T00:58:39;8.50;72.90
75931;DHT22;64609;47.052;15.462;2022-11-20T01:03:38;8.20;71.60
75931;DHT22;64609;47.052;15.462;2022-11-20T01:06:07;8.20;72.30
75931;DHT22;64609;47.052;15.462;2022-11-20T01:08:34;8.20;72.60
75931;DHT22;64609;47.052;15.462;2022-11-20T01:11:06;8.30;73.00
75931;DHT22;64609;47.052;15.462;2022-11-20T01:13:33;8.20;72.30
75931;DHT22;64609;47.052;15.462;2022-11-20T01:18:44;8.20;72.60
75931;DHT22;64609;47.052;15.462;2022-11-20T01:21:16;8.20;72.10
75931;DHT22;64609;47.052;15.462;2022-11-20T01:23:43;8.30;72.50
75931;DHT22;64609;47.052;15.462;2022-11-20T01:26:11;8.30;72.70
75931;DHT22;64609;47.052;15.462;2022-11-20T01:28:38;8.40;72.60
75931;DHT22;64609;47.052;15.462;2022-11-20T01:31:18;8.40;72.40
75931;DHT22;64609;47.052;15.462;2022-11-20T01:33:46;8.50;72.60
75931;DHT22;64609;47.052;15.462;2022-11-20T01:36:12;8.50;73.20
75931;DHT22;64609;47.052;15.462;2022-11-20T01:38:38;8.50;73.50
75931;DHT22;64609;47.052;15.462;2022-11-20T01:41:05;8.50;73.30
75931;DHT22;64609;47.052;15.462;2022-11-20T01:43:31;8.50;73.20
75931;DHT22;64609;47.052;15.462;2022-11-20T01:46:15;8.50;73.50
75931;DHT22;64609;47.052;15.462;2022-11-20T01:48:53;8.50;73.00
75931;DHT22;64609;47.052;15.462;2022-11-20T01:51:33;8.50;72.80
75931;DHT22;64609;47.052;15.462;2022-11-20T01:54:05;8.50;73.10
75931;DHT22;64609;47.052;15.462;2022-11-20T01:56:37;8.40;73.00
75931;DHT22;64609;47.052;15.462;2022-11-20T01:59:05;8.40;73.20
75931;DHT22;64609;47.052;15.462;2022-11-20T02:01:33;8.30;72.90
75931;DHT22;64609;47.052;15.462;2022-11-20T02:03:59;8.30;73.00
75931;DHT22;64609;47.052;15.462;2022-11-20T02:06:40;8.30;73.20
75931;DHT22;64609;47.052;15.462;2022-11-20T02:09:07;8.40;73.50
75931;DHT22;64609;47.052;15.462;2022-11-20T02:11:33;8.40;73.30
75931;DHT22;64609;47.052;15.462;2022-11-20T02:13:59;8.40;73.20
75931;DHT22;64609;47.052;15.462;2022-11-20T02:18:53;8.50;73.20
75931;DHT22;64609;47.052;15.462;2022-11-20T02:24:12;8.50;72.80
75931;DHT22;64609;47.052;15.462;2022-11-20T02:27:01;8.50;73.00
75931;DHT22;64609;47.052;15.462;2022-11-20T02:32:24;8.40;73.60
75931;DHT22;64609;47.052;15.462;2022-11-20T02:34:50;8.40;73.20
75931;DHT22;64609;47.052;15.462;2022-11-20T02:37:17;8.40;73.40
75931;DHT22;64609;47.052;15.462;2022-11-20T02:39:45;8.30;73.50
75931;DHT22;64609;47.052;15.462;2022-11-20T02:42:11;8.30;73.50
75931;DHT22;64609;47.052;15.462;2022-11-20T02:44:37;8.40;73.40
75931;DHT22;64609;47.052;15.462;2022-11-20T02:47:03;8.40;73.60
75931;DHT22;64609;47.052;15.462;2022-11-20T02:49:28;8.40;73.80
75931;DHT22;64609;47.052;15.462;2022-11-20T02:51:54;8.40;73.90
75931;DHT22;64609;47.052;15.462;2022-11-20T02:54:20;8.40;74.10
75931;DHT22;64609;47.052;15.462;2022-11-20T02:56:45;8.30;73.60
75931;DHT22;64609;47.052;15.462;2022-11-20T02:59:11;8.30;73.60
75931;DHT22;64609;47.052;15.462;2022-11-20T03:01:36;8.30;73.60
75931;DHT22;64609;47.052;15.462;2022-11-20T03:04:02;8.30;74.10
75931;DHT22;64609;47.052;15.462;2022-11-20T03:06:28;8.30;74.10
75931;DHT22;64609;47.052;15.462;2022-11-20T03:08:54;8.30;73.70
75931;DHT22;64609;47.052;15.462;2022-11-20T03:11:20;8.30;74.00
75931;DHT22;64609;47.052;15.462;2022-11-20T03:13:45;8.30;74.00
75931;DHT22;64609;47.052;15.462;2022-11-20T03:16:14;8.40;74.70
75931;DHT22;64609;47.052;15.462;2022-11-20T03:18:41;8.40;74.30
75931;DHT22;64609;47.052;15.462;2022-11-20T03:21:08;8.40;74.20
75931;DHT22;64609;47.052;15.462;2022-11-20T03:23:34;8.50;73.80
75931;DHT22;64609;47.052;15.462;2022-11-20T03:26:12;8.50;73.50
75931;DHT22;64609;47.052;15.462;2022-11-20T03:28:38;8.50;73.30
75931;DHT22;64609;47.052;15.462;2022-11-20T03:31:13;8.50;73.60
75931;DHT22;64609;47.052;15.462;2022-11-20T03:33:39;8.50;73.10
75931;DHT22;64609;47.052;15.462;2022-11-20T03:36:09;8.40;73.40
75931;DHT22;64609;47.052;15.462;2022-11-20T03:38:36;8.50;73.60
75931;DHT22;64609;47.052;15.462;2022-11-20T03:41:07;8.40;73.50
75931;DHT22;64609;47.052;15.462;2022-11-20T03:43:33;8.40;73.60
75931;DHT22;64609;47.052;15.462;2022-11-20T03:45:59;8.40;73.80
75931;DHT22;64609;47.052;15.462;2022-11-20T03:48:24;8.40;73.10
75931;DHT22;64609;47.052;15.462;2022-11-20T03:50:51;8.30;73.20
75931;DHT22;64609;47.052;15.462;2022-11-20T03:53:19;8.30;73.50
75931;DHT22;64609;47.052;15.462;2022-11-20T03:55:49;8.40;73.70
75931;DHT22;64609;47.052;15.462;2022-11-20T03:58:15;8.40;73.60
75931;DHT22;64609;47.052;15.462;2022-11-20T04:00:41;8.40;73.50
75931;DHT22;64609;47.052;15.462;2022-11-20T04:03:06;8.40;73.40
75931;DHT22;64609;47.052;15.462;2022-11-20T04:05:33;8.40;73.40
75931;DHT22;64609;47.052;15.462;2022-11-20T04:07:59;8.30;73.40
75931;DHT22;64609;47.052;15.462;2022-11-20T04:10:25;8.40;73.80
75931;DHT22;64609;47.052;15.462;2022-11-20T04:12:50;8.40;74.00
75931;DHT22;64609;47.052;15.462;2022-11-20T04:15:16;8.40;73.70
75931;DHT22;64609;47.052;15.462;2022-11-20T04:17:42;8.30;74.00
75931;DHT22;64609;47.052;15.462;2022-11-20T04:20:07;8.30;73.50
75931;DHT22;64609;47.052;15.462;2022-11-20T04:22:33;8.10;73.40
75931;DHT22;64609;47.052;15.462;2022-11-20T04:24:59;8.10;74.10
75931;DHT22;64609;47.052;15.462;2022-11-20T04:27:24;8.20;74.80
75931;DHT22;64609;47.052;15.462;2022-11-20T04:29:50;8.30;74.80
75931;DHT22;64609;47.052;15.462;2022-11-20T04:32:16;8.30;74.60
75931;DHT22;64609;47.052;15.462;2022-11-20T04:34:41;8.30;74.30
75931;DHT22;64609;47.052;15.462;2022-11-20T04:37:07;8.30;74.20
75931;DHT22;64609;47.052;15.462;2022-11-20T04:39:32;8.30;74.40
75931;DHT22;64609;47.052;15.462;2022-11-20T04:41:58;8.30;74.50
75931;DHT22;64609;47.052;15.462;2022-11-20T04:44:42;8.30;74.40
75931;DHT22;64609;47.052;15.462;2022-11-20T04:47:07;8.30;74.70
75931;DHT22;64609;47.052;15.462;2022-11-20T04:49:33;8.30;74.40
75931;DHT22;64609;47.052;15.462;2022-11-20T04:51:59;8.30;74.30
75931;DHT22;64609;47.052;15.462;2022-11-20T04:54:25;8.30;74.00
75931;DHT22;64609;47.052;15.462;2022-11-20T04:56:50;8.30;74.00
75931;DHT22;64609;47.052;15.462;2022-11-20T04:59:16;8.20;73.90
75931;DHT22;64609;47.052;15.462;2022-11-20T05:01:42;8.10;74.00
75931;DHT22;64609;47.052;15.462;2022-11-20T05:04:07;8.10;74.10
75931;DHT22;64609;47.052;15.462;2022-11-20T05:06:33;8.10;74.10
75931;DHT22;64609;47.052;15.462;2022-11-20T05:08:59;8.00;73.90
75931;DHT22;64609;47.052;15.462;2022-11-20T05:11:26;8.10;74.30
75931;DHT22;64609;47.052;15.462;2022-11-20T05:13:54;8.10;74.40
75931;DHT22;64609;47.052;15.462;2022-11-20T05:16:22;8.10;74.20
75931;DHT22;64609;47.052;15.462;2022-11-20T05:18:49;8.10;74.50
75931;DHT22;64609;47.052;15.462;2022-11-20T05:21:15;8.10;74.30
75931;DHT22;64609;47.052;15.462;2022-11-20T05:23:42;8.00;74.30
75931;DHT22;64609;47.052;15.462;2022-11-20T05:26:16;8.00;74.40
75931;DHT22;64609;47.052;15.462;2022-11-20T05:28:42;8.10;74.50
75931;DHT22;64609;47.052;15.462;2022-11-20T05:31:10;8.10;74.50
75931;DHT22;64609;47.052;15.462;2022-11-20T05:33:36;8.00;74.30
75931;DHT22;64609;47.052;15.462;2022-11-20T05:36:03;8.00;74.30
75931;DHT22;64609;47.052;15.462;2022-11-20T05:38:29;8.00;74.30
75931;DHT22;64609;47.052;15.462;2022-11-20T05:40:55;8.00;74.40
75931;DHT22;64609;47.052;15.462;2022-11-20T05:43:27;8.00;74.40
75931;DHT22;64609;47.052;15.462;2022-11-20T05:45:53;7.90;74.70
75931;DHT22;64609;47.052;15.462;2022-11-20T05:48:19;8.00;74.90
75931;DHT22;64609;47.052;15.462;2022-11-20T05:50:45;8.00;75.00
75931;DHT22;64609;47.052;15.462;2022-11-20T05:53:11;8.10;74.60
75931;DHT22;64609;47.052;15.462;2022-11-20T05:55:36;8.00;74.60
75931;DHT22;64609;47.052;15.462;2022-11-20T05:58:02;8.00;74.30
75931;DHT22;64609;47.052;15.462;2022-11-20T06:00:27;8.00;74.20
75931;DHT22;64609;47.052;15.462;2022-11-20T06:02:53;7.90;73.90
75931;DHT22;64609;47.052;15.462;2022-11-20T06:05:19;7.90;74.10
75931;DHT22;64609;47.052;15.462;2022-11-20T06:07:44;7.80;74.30
75931;DHT22;64609;47.052;15.462;2022-11-20T06:10:10;7.80;74.50
75931;DHT22;64609;47.052;15.462;2022-11-20T06:12:36;7.80;74.60
75931;DHT22;64609;47.052;15.462;2022-11-20T06:15:03;7.90;74.50
75931;DHT22;64609;47.052;15.462;2022-11-20T06:17:29;7.80;74.50
75931;DHT22;64609;47.052;15.462;2022-11-20T06:19:54;7.80;74.90
75931;DHT22;64609;47.052;15.462;2022-11-20T06:22:20;7.80;74.90
75931;DHT22;64609;47.052;15.462;2022-11-20T06:24:46;7.70;74.30
75931;DHT22;64609;47.052;15.462;2022-11-20T06:27:11;7.60;74.80
75931;DHT22;64609;47.052;15.462;2022-11-20T06:29:37;7.60;74.70
75931;DHT22;64609;47.052;15.462;2022-11-20T06:32:02;7.60;74.90
75931;DHT22;64609;47.052;15.462;2022-11-20T06:34:28;7.60;75.10
75931;DHT22;64609;47.052;15.462;2022-11-20T06:36:54;7.60;75.00
75931;DHT22;64609;47.052;15.462;2022-11-20T06:39:19;7.70;75.10
75931;DHT22;64609;47.052;15.462;2022-11-20T06:41:45;7.60;74.90
75931;DHT22;64609;47.052;15.462;2022-11-20T06:44:10;7.70;75.00
75931;DHT22;64609;47.052;15.462;2022-11-20T06:46:36;7.60;75.30
75931;DHT22;64609;47.052;15.462;2022-11-20T06:49:02;7.60;75.60
75931;DHT22;64609;47.052;15.462;2022-11-20T06:51:28;7.70;75.20
75931;DHT22;64609;47.052;15.462;2022-11-20T06:53:53;7.70;75.60
75931;DHT22;64609;47.052;15.462;2022-11-20T06:56:19;7.80;75.90
75931;DHT22;64609;47.052;15.462;2022-11-20T06:58:45;7.90;76.00
75931;DHT22;64609;47.052;15.462;2022-11-20T07:01:13;7.90;75.40
75931;DHT22;64609;47.052;15.462;2022-11-20T07:03:39;7.90;75.10
75931;DHT22;64609;47.052;15.462;2022-11-20T07:06:06;7.90;75.20
75931;DHT22;64609;47.052;15.462;2022-11-20T07:08:32;7.90;75.20
75931;DHT22;64609;47.052;15.462;2022-11-20T07:10:59;7.90;75.40
75931;DHT22;64609;47.052;15.462;2022-11-20T07:13:26;8.00;75.50
75931;DHT22;64609;47.052;15.462;2022-11-20T07:15:52;8.10;75.40
75931;DHT22;64609;47.052;15.462;2022-11-20T07:18:17;8.10;75.30
75931;DHT22;64609;47.052;15.462;2022-11-20T07:20:43;8.10;75.00
75931;DHT22;64609;47.052;15.462;2022-11-20T07:23:08;8.10;75.20
75931;DHT22;64609;47.052;15.462;2022-11-20T07:25:34;8.10;75.20
75931;DHT22;64609;47.052;15.462;2022-11-20T07:28:01;8.20;75.10
75931;DHT22;64609;47.052;15.462;2022-11-20T07:30:30;8.20;75.40
75931;DHT22;64609;47.052;15.462;2022-11-20T07:32:56;8.20;75.10
75931;DHT22;64609;47.052;15.462;2022-11-20T07:35:25;8.30;75.20
75931;DHT22;64609;47.052;15.462;2022-11-20T07:37:51;8.30;74.80
75931;DHT22;64609;47.052;15.462;2022-11-20T07:40:17;8.30;74.60
75931;DHT22;64609;47.052;15.462;2022-11-20T07:42:50;8.40;74.60
75931;DHT22;64609;47.052;15.462;2022-11-20T07:45:17;8.40;74.70
75931;DHT22;64609;47.052;15.462;2022-11-20T07:47:42;8.50;74.30
75931;DHT22;64609;47.052;15.462;2022-11-20T07:50:09;8.50;74.20
75931;DHT22;64609;47.052;15.462;2022-11-20T07:52:34;8.60;74.40
75931;DHT22;64609;47.052;15.462;2022-11-20T07:55:00;8.60;74.20
75931;DHT22;64609;47.052;15.462;2022-11-20T07:57:26;8.60;74.30
75931;DHT22;64609;47.052;15.462;2022-11-20T07:59:51;8.70;74.10
75931;DHT22;64609;47.052;15.462;2022-11-20T08:02:17;8.70;74.20
75931;DHT22;64609;47.052;15.462;2022-11-20T08:04:42;8.80;73.90
75931;DHT22;64609;47.052;15.462;2022-11-20T08:07:08;8.70;73.60
75931;DHT22;64609;47.052;15.462;2022-11-20T08:09:34;8.70;73.70
75931;DHT22;64609;47.052;15.462;2022-11-20T08:11:59;8.70;73.60
75931;DHT22;64609;47.052;15.462;2022-11-20T08:14:43;8.80;74.00
75931;DHT22;64609;47.052;15.462;2022-11-20T08:17:09;8.70;73.60
75931;DHT22;64609;47.052;15.462;2022-11-20T08:19:35;8.70;73.40
75931;DHT22;64609;47.052;15.462;2022-11-20T08:22:00;8.70;74.60
75931;DHT22;64609;47.052;15.462;2022-11-20T08:24:26;8.70;74.90
75931;DHT22;64609;47.052;15.462;2022-11-20T08:26:52;8.80;74.60
75931;DHT22;64609;47.052;15.462;2022-11-20T08:29:18;8.80;74.20
75931;DHT22;64609;47.052;15.462;2022-11-20T08:31:43;8.80;74.10
75931;DHT22;64609;47.052;15.462;2022-11-20T08:34:09;8.80;74.10
75931;DHT22;64609;47.052;15.462;2022-11-20T08:36:36;8.80;74.10
75931;DHT22;64609;47.052;15.462;2022-11-20T08:39:02;8.80;74.50
75931;DHT22;64609;47.052;15.462;2022-11-20T08:41:29;8.90;74.80
75931;DHT22;64609;47.052;15.462;2022-11-20T08:44:02;8.90;74.30
75931;DHT22;64609;47.052;15.462;2022-11-20T08:46:32;9.00;74.40
75931;DHT22;64609;47.052;15.462;2022-11-20T08:48:59;9.00;75.10
75931;DHT22;64609;47.052;15.462;2022-11-20T08:51:25;9.00;74.70
75931;DHT22;64609;47.052;15.462;2022-11-20T08:53:50;8.90;74.10
75931;DHT22;64609;47.052;15.462;2022-11-20T08:56:17;8.90;74.40
75931;DHT22;64609;47.052;15.462;2022-11-20T08:58:43;9.00;74.70
75931;DHT22;64609;47.052;15.462;2022-11-20T09:01:09;9.00;74.60
75931;DHT22;64609;47.052;15.462;2022-11-20T09:03:35;9.00;74.50
75931;DHT22;64609;47.052;15.462;2022-11-20T09:06:02;9.00;74.70
75931;DHT22;64609;47.052;15.462;2022-11-20T09:08:29;9.10;76.00
75931;DHT22;64609;47.052;15.462;2022-11-20T09:10:56;9.20;74.90
75931;DHT22;64609;47.052;15.462;2022-11-20T09:13:22;9.20;74.30
75931;DHT22;64609;47.052;15.462;2022-11-20T09:15:59;9.20;74.80
75931;DHT22;64609;47.052;15.462;2022-11-20T09:18:27;9.20;74.60
75931;DHT22;64609;47.052;15.462;2022-11-20T09:20:57;9.30;74.50
75931;DHT22;64609;47.052;15.462;2022-11-20T09:23:23;9.30;74.50
75931;DHT22;64609;47.052;15.462;2022-11-20T09:25:48;9.40;74.80
75931;DHT22;64609;47.052;15.462;2022-11-20T09:28:14;9.40;74.90
75931;DHT22;64609;47.052;15.462;2022-11-20T09:30:40;9.40;75.50
75931;DHT22;64609;47.052;15.462;2022-11-20T09:33:06;9.50;74.80
75931;DHT22;64609;47.052;15.462;2022-11-20T09:35:32;9.50;74.60
75931;DHT22;64609;47.052;15.462;2022-11-20T09:37:58;9.60;74.60
75931;DHT22;64609;47.052;15.462;2022-11-20T09:40:28;9.60;74.40
75931;DHT22;64609;47.052;15.462;2022-11-20T09:53:56;9.70;74.70
75931;DHT22;64609;47.052;15.462;2022-11-20T09:56:26;9.80;75.00
75931;DHT22;64609;47.052;15.462;2022-11-20T09:58:53;9.80;75.50
75931;DHT22;64609;47.052;15.462;2022-11-20T10:01:26;9.90;74.90
75931;DHT22;64609;47.052;15.462;2022-11-20T10:04:18;10.00;74.80
75931;DHT22;64609;47.052;15.462;2022-11-20T10:09:29;10.20;75.10
75931;DHT22;64609;47.052;15.462;2022-11-20T10:12:14;10.30;74.80
75931;DHT22;64609;47.052;15.462;2022-11-20T10:15:05;10.70;74.50
75931;DHT22;64609;47.052;15.462;2022-11-20T10:26:22;11.80;70.50
75931;DHT22;64609;47.052;15.462;2022-11-20T10:31:33;12.00;69.50
75931;DHT22;64609;47.052;15.462;2022-11-20T10:34:06;12.10;69.10
75931;DHT22;64609;47.052;15.462;2022-11-20T10:36:47;12.20;68.50
75931;DHT22;64609;47.052;15.462;2022-11-20T10:39:22;12.60;69.30
75931;DHT22;64609;47.052;15.462;2022-11-20T10:41:52;12.90;67.20
75931;DHT22;64609;47.052;15.462;2022-11-20T10:44:27;13.20;66.30
75931;DHT22;64609;47.052;15.462;2022-11-20T10:47:16;13.40;65.50
75931;DHT22;64609;47.052;15.462;2022-11-20T10:49:45;13.50;64.30
75931;DHT22;64609;47.052;15.462;2022-11-20T10:58:14;13.50;63.70
75931;DHT22;64609;47.052;15.462;2022-11-20T11:00:45;13.50;64.20
75931;DHT22;64609;47.052;15.462;2022-11-20T11:03:31;13.50;63.60
75931;DHT22;64609;47.052;15.462;2022-11-20T11:06:34;13.50;63.60
75931;DHT22;64609;47.052;15.462;2022-11-20T11:09:28;13.30;63.80
75931;DHT22;64609;47.052;15.462;2022-11-20T11:11:55;13.10;64.20
75931;DHT22;64609;47.052;15.462;2022-11-20T11:14:20;12.90;64.20
75931;DHT22;64609;47.052;15.462;2022-11-20T11:16:51;12.80;64.80
75931;DHT22;64609;47.052;15.462;2022-11-20T11:19:17;12.70;65.40
75931;DHT22;64609;47.052;15.462;2022-11-20T11:22:06;12.70;65.20
75931;DHT22;64609;47.052;15.462;2022-11-20T11:24:36;12.70;65.80
75931;DHT22;64609;47.052;15.462;2022-11-20T11:27:04;12.70;65.80
75931;DHT22;64609;47.052;15.462;2022-11-20T11:29:35;12.70;65.70
75931;DHT22;64609;47.052;15.462;2022-11-20T11:32:13;12.70;66.00
75931;DHT22;64609;47.052;15.462;2022-11-20T11:34:39;12.70;64.70
75931;DHT22;64609;47.052;15.462;2022-11-20T11:37:13;12.60;64.80
75931;DHT22;64609;47.052;15.462;2022-11-20T11:39:42;12.70;65.90
75931;DHT22;64609;47.052;15.462;2022-11-20T11:42:11;12.80;64.80
75931;DHT22;64609;47.052;15.462;2022-11-20T11:44:44;12.80;64.50
75931;DHT22;64609;47.052;15.462;2022-11-20T11:52:28;13.60;62.80
75931;DHT22;64609;47.052;15.462;2022-11-20T11:55:03;13.70;62.30
75931;DHT22;64609;47.052;15.462;2022-11-20T12:00:19;13.90;61.80
75931;DHT22;64609;47.052;15.462;2022-11-20T12:05:37;14.00;62.10
75931;DHT22;64609;47.052;15.462;2022-11-20T12:08:21;14.00;60.60
75931;DHT22;64609;47.052;15.462;2022-11-20T12:11:14;13.80;60.50
75931;DHT22;64609;47.052;15.462;2022-11-20T12:14:07;13.60;61.10
75931;DHT22;64609;47.052;15.462;2022-11-20T12:16:36;13.60;61.50
75931;DHT22;64609;47.052;15.462;2022-11-20T12:19:11;13.60;60.40
75931;DHT22;64609;47.052;15.462;2022-11-20T12:30:21;13.40;60.60
75931;DHT22;64609;47.052;15.462;2022-11-20T12:36:05;13.30;60.80
75931;DHT22;64609;47.052;15.462;2022-11-20T12:41:48;13.30;61.30
75931;DHT22;64609;47.052;15.462;2022-11-20T12:45:00;13.20;60.80
75931;DHT22;64609;47.052;15.462;2022-11-20T12:47:43;13.20;61.80
75931;DHT22;64609;47.052;15.462;2022-11-20T12:53:10;13.30;61.00
75931;DHT22;64609;47.052;15.462;2022-11-20T13:07:08;13.40;60.90
75931;DHT22;64609;47.052;15.462;2022-11-20T13:09:46;13.40;60.90
75931;DHT22;64609;47.052;15.462;2022-11-20T13:12:34;13.40;59.90
75931;DHT22;64609;47.052;15.462;2022-11-20T13:17:44;13.50;60.10
75931;DHT22;64609;47.052;15.462;2022-11-20T13:20:17;13.50;59.90
75931;DHT22;64609;47.052;15.462;2022-11-20T13:22:48;13.50;59.50
75931;DHT22;64609;47.052;15.462;2022-11-20T13:25:25;13.40;58.90
75931;DHT22;64609;47.052;15.462;2022-11-20T13:27:51;13.30;59.80
75931;DHT22;64609;47.052;15.462;2022-11-20T13:30:21;13.30;59.80
75931;DHT22;64609;47.052;15.462;2022-11-20T13:35:32;13.30;60.00
75931;DHT22;64609;47.052;15.462;2022-11-20T13:38:10;13.30;60.50
75931;DHT22;64609;47.052;15.462;2022-11-20T13:40:38;13.30;60.80
75931;DHT22;64609;47.052;15.462;2022-11-20T13:45:42;13.20;61.10
75931;DHT22;64609;47.052;15.462;2022-11-20T13:48:22;13.20;61.20
75931;DHT22;64609;47.052;15.462;2022-11-20T13:56:19;13.20;61.30
75931;DHT22;64609;47.052;15.462;2022-11-20T14:01:20;13.10;61.60
75931;DHT22;64609;47.052;15.462;2022-11-20T14:03:47;13.00;61.80
75931;DHT22;64609;47.052;15.462;2022-11-20T14:06:42;13.00;61.50
75931;DHT22;64609;47.052;15.462;2022-11-20T14:09:30;12.90;61.50
75931;DHT22;64609;47.052;15.462;2022-11-20T14:11:56;12.80;61.40
75931;DHT22;64609;47.052;15.462;2022-11-20T14:14:29;12.80;61.80
75931;DHT22;64609;47.052;15.462;2022-11-20T14:17:17;12.80;62.40
75931;DHT22;64609;47.052;15.462;2022-11-20T14:19:45;12.80;61.40
75931;DHT22;64609;47.052;15.462;2022-11-20T14:24:47;12.70;62.40
75931;DHT22;64609;47.052;15.462;2022-11-20T14:27:22;12.60;62.30
75931;DHT22;64609;47.052;15.462;2022-11-20T14:29:49;12.70;63.20
75931;DHT22;64609;47.052;15.462;2022-11-20T14:32:20;12.70;62.70
75931;DHT22;64609;47.052;15.462;2022-11-20T14:34:49;12.70;63.00
75931;DHT22;64609;47.052;15.462;2022-11-20T14:37:23;12.80;63.50
75931;DHT22;64609;47.052;15.462;2022-11-20T14:39:55;12.70;63.30
75931;DHT22;64609;47.052;15.462;2022-11-20T14:42:24;12.60;62.90
75931;DHT22;64609;47.052;15.462;2022-11-20T14:44:52;12.60;63.20
75931;DHT22;64609;47.052;15.462;2022-11-20T14:47:23;12.50;63.80
75931;DHT22;64609;47.052;15.462;2022-11-20T14:49:51;12.50;63.80
75931;DHT22;64609;47.052;15.462;2022-11-20T14:52:22;12.40;64.00
75931;DHT22;64609;47.052;15.462;2022-11-20T14:54:50;12.30;63.90
75931;DHT22;64609;47.052;15.462;2022-11-20T14:57:35;12.20;64.10
75931;DHT22;64609;47.052;15.462;2022-11-20T15:02:42;12.10;65.50
75931;DHT22;64609;47.052;15.462;2022-11-20T15:05:08;12.00;65.60
75931;DHT22;64609;47.052;15.462;2022-11-20T15:07:39;12.00;66.50
75931;DHT22;64609;47.052;15.462;2022-11-20T15:10:25;12.00;66.60
75931;DHT22;64609;47.052;15.462;2022-11-20T15:12:53;12.00;67.30
75931;DHT22;64609;47.052;15.462;2022-11-20T15:15:51;11.90;67.40
75931;DHT22;64609;47.052;15.462;2022-11-20T15:18:20;11.80;67.20
75931;DHT22;64609;47.052;15.462;2022-11-20T15:20:47;11.70;67.30
75931;DHT22;64609;47.052;15.462;2022-11-20T15:23:15;11.60;67.60
75931;DHT22;64609;47.052;15.462;2022-11-20T15:25:42;11.50;67.70
75931;DHT22;64609;47.052;15.462;2022-11-20T15:28:34;11.50;68.30
75931;DHT22;64609;47.052;15.462;2022-11-20T15:31:01;11.40;68.30
75931;DHT22;64609;47.052;15.462;2022-11-20T15:33:28;11.30;68.70
75931;DHT22;64609;47.052;15.462;2022-11-20T15:35:54;11.20;68.90
75931;DHT22;64609;47.052;15.462;2022-11-20T15:38:19;11.10;69.20
75931;DHT22;64609;47.052;15.462;2022-11-20T15:40:45;11.00;69.60
75931;DHT22;64609;47.052;15.462;2022-11-20T15:43:10;10.90;69.70
75931;DHT22;64609;47.052;15.462;2022-11-20T15:48:26;10.70;71.20
75931;DHT22;64609;47.052;15.462;2022-11-20T15:50:59;10.70;70.60
75931;DHT22;64609;47.052;15.462;2022-11-20T15:53:27;10.60;70.70
75931;DHT22;64609;47.052;15.462;2022-11-20T15:55:52;10.50;70.90
75931;DHT22;64609;47.052;15.462;2022-11-20T15:58:18;10.40;71.20
75931;DHT22;64609;47.052;15.462;2022-11-20T16:00:44;10.30;71.40
75931;DHT22;64609;47.052;15.462;2022-11-20T16:03:14;10.30;72.00
75931;DHT22;64609;47.052;15.462;2022-11-20T16:05:40;10.20;72.00
75931;DHT22;64609;47.052;15.462;2022-11-20T16:08:06;10.10;72.20
75931;DHT22;64609;47.052;15.462;2022-11-20T16:10:32;10.10;72.40
75931;DHT22;64609;47.052;15.462;2022-11-20T16:12:58;10.10;72.30
75931;DHT22;64609;47.052;15.462;2022-11-20T16:16:04;10.10;72.30
75931;DHT22;64609;47.052;15.462;2022-11-20T16:18:30;10.10;72.60
75931;DHT22;64609;47.052;15.462;2022-11-20T16:20:56;9.90;73.10
75931;DHT22;64609;47.052;15.462;2022-11-20T16:23:22;9.80;73.60
75931;DHT22;64609;47.052;15.462;2022-11-20T16:25:49;9.70;73.80
75931;DHT22;64609;47.052;15.462;2022-11-20T16:28:15;9.70;74.10
75931;DHT22;64609;47.052;15.462;2022-11-20T16:30:41;9.60;74.10
75931;DHT22;64609;47.052;15.462;2022-11-20T16:33:17;9.60;74.50
75931;DHT22;64609;47.052;15.462;2022-11-20T16:35:43;9.70;75.10
75931;DHT22;64609;47.052;15.462;2022-11-20T16:38:09;9.80;75.00
75931;DHT22;64609;47.052;15.462;2022-11-20T16:40:35;9.80;74.70
75931;DHT22;64609;47.052;15.462;2022-11-20T16:43:12;9.80;74.90
75931;DHT22;64609;47.052;15.462;2022-11-20T16:45:42;9.80;75.30
75931;DHT22;64609;47.052;15.462;2022-11-20T16:48:12;9.80;75.20
75931;DHT22;64609;47.052;15.462;2022-11-20T16:50:46;9.90;75.80
75931;DHT22;64609;47.052;15.462;2022-11-20T16:53:12;9.90;75.50
75931;DHT22;64609;47.052;15.462;2022-11-20T16:55:38;9.90;75.50
75931;DHT22;64609;47.052;15.462;2022-11-20T16:58:03;9.90;75.40
75931;DHT22;64609;47.052;15.462;2022-11-20T17:00:29;9.90;75.40
75931;DHT22;64609;47.052;15.462;2022-11-20T17:02:55;9.90;75.70
75931;DHT22;64609;47.052;15.462;2022-11-20T17:05:20;9.80;75.60
75931;DHT22;64609;47.052;15.462;2022-11-20T17:07:46;9.70;75.60
75931;DHT22;64609;47.052;15.462;2022-11-20T17:10:12;9.60;75.90
75931;DHT22;64609;47.052;15.462;2022-11-20T17:12:37;9.50;76.20
75931;DHT22;64609;47.052;15.462;2022-11-20T17:15:03;9.60;76.80
75931;DHT22;64609;47.052;15.462;2022-11-20T17:17:29;9.60;77.00
75931;DHT22;64609;47.052;15.462;2022-11-20T17:19:54;9.70;77.10
75931;DHT22;64609;47.052;15.462;2022-11-20T17:22:20;9.80;77.00
75931;DHT22;64609;47.052;15.462;2022-11-20T17:24:46;9.80;76.80
75931;DHT22;64609;47.052;15.462;2022-11-20T17:27:11;9.90;77.40
75931;DHT22;64609;47.052;15.462;2022-11-20T17:29:37;9.90;77.30